createdAt,value
2018-08-17T04:00:35.206Z,0.00
2018-08-17T04:01:35.156Z,0.00
2018-08-17T04:02:35.155Z,0.00
2018-08-17T04:03:35.127Z,5.62
2018-08-17T04:04:35.135Z,5.62
2018-08-17T04:05:35.141Z,5.62
2018-08-17T04:06:35.123Z,5.62
2018-08-17T04:07:35.113Z,5.62
2018-08-17T04:08:35.083Z,5.62
2018-08-17T04:09:35.067Z,5.62
2018-08-17T04:10:35.052Z,5.62
2018-08-17T04:11:35.039Z,5.62
2018-08-17T04:12:35.051Z,5.62
2018-08-17T04:13:35.014Z,5.62
2018-08-17T04:14:35.005Z,11.25
2018-08-17T04:15:35.090Z,11.25
2018-08-17T04:16:34.982Z,11.25
2018-08-17T04:17:34.969Z,11.25
2018-08-17T04:18:34.970Z,11.25
2018-08-17T04:19:34.979Z,11.25
2018-08-17T04:20:34.949Z,11.25
2018-08-17T04:21:34.926Z,16.88
2018-08-17T04:22:34.916Z,16.88
2018-08-17T04:23:34.914Z,16.88
2018-08-17T04:24:34.895Z,16.88
2018-08-17T04:25:34.882Z,22.50
2018-08-17T04:26:34.870Z,22.50
2018-08-17T04:27:34.887Z,28.12
2018-08-17T04:28:34.867Z,28.12
2018-08-17T04:29:34.852Z,28.12
2018-08-17T04:30:34.881Z,28.12
2018-08-17T04:31:34.815Z,33.75
2018-08-17T04:32:34.804Z,33.75
2018-08-17T04:33:34.807Z,33.75
2018-08-17T04:34:34.782Z,33.75
2018-08-17T04:35:34.831Z,33.75
2018-08-17T04:36:34.760Z,33.75
2018-08-17T04:37:34.752Z,33.75
2018-08-17T04:38:34.753Z,33.75
2018-08-17T04:39:34.755Z,33.75
2018-08-17T04:40:34.749Z,33.75
2018-08-17T04:41:34.703Z,33.75
2018-08-17T04:42:34.692Z,39.38
2018-08-17T04:43:34.751Z,39.38
2018-08-17T04:44:34.716Z,39.38
2018-08-17T04:45:34.666Z,45.00
2018-08-17T04:46:34.650Z,45.00
2018-08-17T04:47:34.639Z,45.00
2018-08-17T04:48:34.696Z,50.62
2018-08-17T04:49:34.617Z,50.62
2018-08-17T04:50:34.603Z,56.25
2018-08-17T04:51:34.595Z,56.25
2018-08-17T04:52:34.581Z,56.25
2018-08-17T04:53:34.584Z,56.25
2018-08-17T04:54:34.560Z,56.25
2018-08-17T04:55:34.549Z,56.25
2018-08-17T04:56:34.540Z,56.25
2018-08-17T04:57:34.559Z,56.25
2018-08-17T04:58:34.529Z,61.88
2018-08-17T04:59:34.511Z,61.88
2018-08-17T05:00:34.496Z,67.50
2018-08-17T05:01:34.483Z,67.50
2018-08-17T05:02:34.475Z,67.50
2018-08-17T05:03:34.473Z,67.50
2018-08-17T05:04:34.448Z,73.12
2018-08-17T05:05:34.442Z,78.75
2018-08-17T05:06:34.428Z,78.75
2018-08-17T05:07:34.430Z,84.38
2018-08-17T05:08:34.419Z,84.38
2018-08-17T05:09:34.394Z,90.00
2018-08-17T05:10:34.386Z,90.00
2018-08-17T05:11:34.371Z,90.00
2018-08-17T05:12:34.361Z,90.00
2018-08-17T05:13:34.360Z,90.00
2018-08-17T05:14:34.343Z,90.00
2018-08-17T05:15:34.326Z,90.00
2018-08-17T05:16:34.319Z,90.00
2018-08-17T05:17:34.304Z,90.00
2018-08-17T05:18:34.311Z,90.00
2018-08-17T05:19:34.284Z,90.00
2018-08-17T05:20:34.271Z,90.00
2018-08-17T05:21:34.425Z,95.62
2018-08-17T05:22:34.252Z,95.62
2018-08-17T05:23:34.246Z,101.25
2018-08-17T05:24:34.226Z,101.25
2018-08-17T05:25:34.215Z,101.25
2018-08-17T05:26:34.204Z,106.88
2018-08-17T05:27:34.190Z,112.50
2018-08-17T05:28:34.199Z,112.50
2018-08-17T05:29:34.172Z,118.12
2018-08-17T05:30:34.189Z,118.12
2018-08-17T05:31:34.150Z,118.12
2018-08-17T05:32:34.137Z,118.12
2018-08-17T05:33:34.134Z,118.12
2018-08-17T05:34:34.115Z,112.50
2018-08-17T05:35:34.104Z,112.50
2018-08-17T05:36:34.126Z,112.50
2018-08-17T05:37:34.084Z,112.50
2018-08-17T05:38:34.089Z,112.50
2018-08-17T05:39:34.061Z,112.50
2018-08-17T05:40:34.047Z,112.50
2018-08-17T05:41:34.039Z,112.50
2018-08-17T05:42:34.025Z,112.50
2018-08-17T05:43:34.036Z,106.88
2018-08-17T05:44:34.003Z,106.88
2018-08-17T05:45:33.991Z,106.88
2018-08-17T05:46:33.983Z,106.88
2018-08-17T05:47:33.976Z,112.50
2018-08-17T05:48:33.972Z,118.12
2018-08-17T05:49:33.946Z,123.75
2018-08-17T05:50:33.938Z,129.38
2018-08-17T05:51:33.927Z,135.00
2018-08-17T05:52:33.919Z,140.62
2018-08-17T05:53:33.916Z,140.62
2018-08-17T05:54:33.896Z,146.25
2018-08-17T05:55:33.882Z,151.88
2018-08-17T05:56:33.903Z,157.50
2018-08-17T05:57:33.872Z,163.12
2018-08-17T05:58:33.892Z,163.12
2018-08-17T05:59:33.839Z,163.12
2018-08-17T06:00:33.826Z,168.75
2018-08-17T06:01:33.817Z,168.75
2018-08-17T06:02:33.815Z,168.75
2018-08-17T06:03:33.804Z,168.75
2018-08-17T06:04:33.790Z,168.75
2018-08-17T06:05:33.774Z,168.75
2018-08-17T06:06:33.758Z,168.75
2018-08-17T06:07:33.757Z,168.75
2018-08-17T06:08:33.759Z,163.12
2018-08-17T06:09:33.732Z,163.12
2018-08-17T06:10:33.719Z,163.12
2018-08-17T06:11:33.734Z,163.12
2018-08-17T06:12:33.692Z,168.75
2018-08-17T06:13:33.691Z,168.75
2018-08-17T06:14:33.733Z,174.38
2018-08-17T06:15:33.660Z,185.62
2018-08-17T06:16:33.653Z,191.25
2018-08-17T06:17:33.642Z,196.88
2018-08-17T06:18:33.676Z,208.12
2018-08-17T06:19:33.637Z,236.25
2018-08-17T06:20:33.606Z,292.50
2018-08-17T06:21:33.641Z,309.38
2018-08-17T06:22:33.583Z,331.88
2018-08-17T06:23:33.575Z,309.38
2018-08-17T06:24:33.583Z,331.88
2018-08-17T06:25:33.578Z,303.75
2018-08-17T06:26:33.538Z,331.88
2018-08-17T06:27:33.527Z,360.00
2018-08-17T06:28:33.519Z,303.75
2018-08-17T06:29:33.523Z,315.00
2018-08-17T06:30:33.492Z,337.50
2018-08-17T06:31:33.498Z,371.25
2018-08-17T06:32:33.474Z,388.12
2018-08-17T06:33:33.461Z,399.38
2018-08-17T06:34:33.463Z,399.38
2018-08-17T06:35:33.438Z,405.00
2018-08-17T06:36:33.427Z,410.62
2018-08-17T06:37:33.416Z,410.62
2018-08-17T06:38:33.408Z,410.62
2018-08-17T06:39:33.408Z,410.62
2018-08-17T06:40:33.386Z,410.62
2018-08-17T06:41:33.375Z,410.62
2018-08-17T06:42:33.361Z,421.88
2018-08-17T06:43:33.348Z,421.88
2018-08-17T06:44:33.351Z,416.25
2018-08-17T06:45:33.331Z,421.88
2018-08-17T06:46:33.321Z,416.25
2018-08-17T06:47:33.306Z,410.62
2018-08-17T06:48:33.295Z,405.00
2018-08-17T06:49:33.296Z,399.38
2018-08-17T06:50:33.323Z,382.50
2018-08-17T06:51:33.260Z,405.00
2018-08-17T06:52:33.247Z,410.62
2018-08-17T06:53:33.238Z,416.25
2018-08-17T06:54:33.241Z,405.00
2018-08-17T06:55:33.221Z,410.62
2018-08-17T06:56:33.205Z,405.00
2018-08-17T06:57:33.197Z,393.75
2018-08-17T06:58:33.185Z,405.00
2018-08-17T06:59:33.184Z,421.88
2018-08-17T07:00:33.163Z,427.50
2018-08-17T07:01:33.157Z,444.38
2018-08-17T07:02:33.195Z,450.00
2018-08-17T07:03:33.129Z,466.88
2018-08-17T07:04:33.129Z,483.75
2018-08-17T07:05:33.107Z,489.38
2018-08-17T07:06:33.104Z,495.00
2018-08-17T07:07:33.088Z,495.00
2018-08-17T07:08:33.102Z,506.25
2018-08-17T07:09:33.145Z,506.25
2018-08-17T07:10:33.068Z,455.62
2018-08-17T07:11:33.039Z,461.25
2018-08-17T07:12:33.028Z,483.75
2018-08-17T07:13:33.015Z,511.88
2018-08-17T07:14:33.018Z,528.75
2018-08-17T07:15:33.003Z,528.75
2018-08-17T07:16:33.069Z,511.88
2018-08-17T07:17:32.978Z,511.88
2018-08-17T07:18:32.960Z,511.88
2018-08-17T07:19:32.960Z,517.50
2018-08-17T07:20:32.940Z,528.75
2018-08-17T07:21:32.932Z,551.25
2018-08-17T07:22:32.918Z,528.75
2018-08-17T07:23:32.907Z,534.38
2018-08-17T07:24:32.912Z,551.25
2018-08-17T07:25:32.891Z,568.12
2018-08-17T07:26:32.880Z,534.38
2018-08-17T07:27:32.921Z,523.12
2018-08-17T07:28:32.852Z,517.50
2018-08-17T07:29:32.860Z,511.88
2018-08-17T07:30:32.833Z,551.25
2018-08-17T07:31:32.820Z,562.50
2018-08-17T07:32:32.815Z,573.75
2018-08-17T07:33:32.799Z,562.50
2018-08-17T07:34:32.802Z,585.00
2018-08-17T07:35:32.819Z,573.75
2018-08-17T07:36:32.777Z,573.75
2018-08-17T07:37:32.757Z,579.38
2018-08-17T07:38:32.743Z,596.25
2018-08-17T07:39:32.747Z,748.12
2018-08-17T07:40:32.721Z,1305.00
2018-08-17T07:41:32.819Z,1620.00
2018-08-17T07:42:32.700Z,1693.12
2018-08-17T07:43:32.699Z,1726.88
2018-08-17T07:44:32.690Z,1783.12
2018-08-17T07:45:32.670Z,1771.88
2018-08-17T07:46:32.659Z,1462.50
2018-08-17T07:47:32.646Z,855.00
2018-08-17T07:48:32.634Z,680.62
2018-08-17T07:49:32.636Z,916.88
2018-08-17T07:50:32.612Z,1518.75
2018-08-17T07:51:32.602Z,1361.25
2018-08-17T07:52:32.596Z,838.12
2018-08-17T07:53:32.586Z,748.12
2018-08-17T07:54:32.589Z,928.12
2018-08-17T07:55:32.559Z,843.75
2018-08-17T07:56:32.548Z,703.12
2018-08-17T07:57:32.574Z,697.50
2018-08-17T07:58:32.585Z,776.25
2018-08-17T07:59:32.542Z,855.00
2018-08-17T08:00:32.594Z,888.75
2018-08-17T08:01:32.504Z,759.38
2018-08-17T08:02:32.481Z,742.50
2018-08-17T08:03:32.594Z,736.88
2018-08-17T08:04:32.461Z,720.00
2018-08-17T08:05:32.462Z,714.38
2018-08-17T08:06:32.439Z,714.38
2018-08-17T08:07:32.431Z,714.38
2018-08-17T08:08:32.418Z,714.38
2018-08-17T08:09:32.408Z,765.00
2018-08-17T08:10:32.808Z,888.75
2018-08-17T08:11:32.384Z,945.00
2018-08-17T08:12:32.374Z,961.88
2018-08-17T08:13:32.374Z,990.00
2018-08-17T08:14:32.355Z,1006.88
2018-08-17T08:15:32.352Z,1018.12
2018-08-17T08:16:32.331Z,995.62
2018-08-17T08:17:32.325Z,1006.88
2018-08-17T08:18:32.316Z,1006.88
2018-08-17T08:19:32.299Z,1108.12
2018-08-17T08:20:32.321Z,1338.75
2018-08-17T08:21:32.280Z,1321.88
2018-08-17T08:22:32.266Z,1192.50
2018-08-17T08:23:32.256Z,1181.25
2018-08-17T08:24:32.245Z,1192.50
2018-08-17T08:25:32.246Z,1198.12
2018-08-17T08:26:32.222Z,1237.50
2018-08-17T08:27:32.214Z,1305.00
2018-08-17T08:28:32.204Z,1282.50
2018-08-17T08:29:32.190Z,1271.25
2018-08-17T08:30:32.190Z,1243.12
2018-08-17T08:31:32.171Z,1653.75
2018-08-17T08:32:32.236Z,2216.25
2018-08-17T08:33:32.147Z,2306.25
2018-08-17T08:34:32.139Z,1873.12
2018-08-17T08:35:32.136Z,1833.75
2018-08-17T08:36:32.114Z,1901.25
2018-08-17T08:37:32.115Z,1693.12
2018-08-17T08:38:32.097Z,1738.12
2018-08-17T08:39:32.082Z,2030.62
2018-08-17T08:40:32.084Z,2902.50
2018-08-17T08:41:32.112Z,3341.25
2018-08-17T08:42:32.049Z,3301.88
2018-08-17T08:43:32.038Z,3065.62
2018-08-17T08:44:32.030Z,3026.25
2018-08-17T08:45:32.058Z,3054.38
2018-08-17T08:46:32.005Z,3076.88
2018-08-17T08:47:31.994Z,3088.12
2018-08-17T08:48:31.987Z,3346.88
2018-08-17T08:49:31.974Z,2908.12
2018-08-17T08:50:31.973Z,3183.75
2018-08-17T08:51:31.952Z,3189.38
2018-08-17T08:52:31.942Z,3234.38
2018-08-17T08:53:31.930Z,3279.38
2018-08-17T08:54:31.920Z,3639.38
2018-08-17T08:55:31.920Z,3510.00
2018-08-17T08:56:31.897Z,3948.75
2018-08-17T08:57:31.885Z,4078.12
2018-08-17T08:58:31.876Z,4038.75
2018-08-17T08:59:31.865Z,3493.12
2018-08-17T09:00:31.873Z,3448.12
2018-08-17T09:01:31.879Z,3470.62
2018-08-17T09:02:31.832Z,3487.50
2018-08-17T09:03:31.822Z,3487.50
2018-08-17T09:04:31.821Z,3436.88
2018-08-17T09:05:31.816Z,3408.75
2018-08-17T09:06:31.788Z,3577.50
2018-08-17T09:07:31.778Z,3571.88
2018-08-17T09:08:31.767Z,3487.50
2018-08-17T09:09:31.758Z,3313.12
2018-08-17T09:10:31.960Z,3549.38
2018-08-17T09:11:31.733Z,3358.12
2018-08-17T09:12:31.725Z,545.62
2018-08-17T09:13:31.728Z,815.62
2018-08-17T09:14:31.704Z,1631.25
2018-08-17T09:15:31.703Z,3684.38
2018-08-17T09:16:31.684Z,3813.75
2018-08-17T09:17:31.672Z,3768.75
2018-08-17T09:18:31.658Z,3791.25
2018-08-17T09:19:31.649Z,4995.00
2018-08-17T09:20:31.699Z,3813.75
2018-08-17T09:21:31.627Z,3780.00
2018-08-17T09:22:31.623Z,3661.88
2018-08-17T09:23:31.604Z,3678.75
2018-08-17T09:24:31.595Z,4736.25
2018-08-17T09:25:31.599Z,4230.00
2018-08-17T09:26:31.581Z,4027.50
2018-08-17T09:27:31.561Z,3650.62
2018-08-17T09:28:31.563Z,3380.62
2018-08-17T09:29:31.543Z,3656.25
2018-08-17T09:30:31.534Z,3718.12
2018-08-17T09:31:31.532Z,3690.00
2018-08-17T09:32:31.509Z,3667.50
2018-08-17T09:33:31.500Z,3206.25
2018-08-17T09:34:31.485Z,3189.38
2018-08-17T09:35:31.476Z,2829.38
2018-08-17T09:36:31.475Z,3234.38
2018-08-17T09:37:31.453Z,3431.25
2018-08-17T09:38:31.443Z,3375.00
2018-08-17T09:39:31.433Z,3358.12
2018-08-17T09:40:31.420Z,1215.00
2018-08-17T09:41:31.427Z,759.38
2018-08-17T09:42:31.400Z,1029.38
2018-08-17T09:43:31.392Z,2306.25
2018-08-17T09:44:31.377Z,2986.88
2018-08-17T09:45:31.369Z,1029.38
2018-08-17T09:46:31.367Z,652.50
2018-08-17T09:47:31.345Z,1074.38
2018-08-17T09:48:31.333Z,3138.75
2018-08-17T09:49:31.328Z,3633.75
2018-08-17T09:50:31.312Z,3566.25
2018-08-17T09:51:31.318Z,3183.75
2018-08-17T09:52:31.291Z,2970.00
2018-08-17T09:53:31.281Z,1575.00
2018-08-17T09:54:31.272Z,562.50
2018-08-17T09:55:31.259Z,433.12
2018-08-17T09:56:31.263Z,393.75
2018-08-17T09:57:31.280Z,360.00
2018-08-17T09:58:31.230Z,365.62
2018-08-17T09:59:31.223Z,348.75
2018-08-17T10:00:31.208Z,1434.38
2018-08-17T10:01:31.207Z,382.50
2018-08-17T10:02:31.182Z,410.62
2018-08-17T10:03:31.173Z,489.38
2018-08-17T10:04:31.160Z,478.12
2018-08-17T10:05:31.152Z,483.75
2018-08-17T10:06:31.152Z,517.50
2018-08-17T10:07:31.129Z,511.88
2018-08-17T10:08:31.118Z,489.38
2018-08-17T10:09:31.113Z,472.50
2018-08-17T10:10:31.098Z,455.62
2018-08-17T10:11:31.096Z,455.62
2018-08-17T10:12:31.076Z,450.00
2018-08-17T10:13:31.065Z,455.62
2018-08-17T10:14:31.055Z,438.75
2018-08-17T10:15:31.047Z,433.12
2018-08-17T10:16:31.042Z,410.62
2018-08-17T10:17:31.023Z,399.38
2018-08-17T10:18:31.014Z,405.00
2018-08-17T10:19:31.002Z,393.75
2018-08-17T10:20:30.991Z,388.12
2018-08-17T10:21:31.476Z,376.88
2018-08-17T10:22:30.969Z,371.25
2018-08-17T10:23:30.963Z,371.25
2018-08-17T10:24:30.944Z,371.25
2018-08-17T10:25:30.937Z,360.00
2018-08-17T10:26:30.936Z,354.38
2018-08-17T10:27:30.917Z,354.38
2018-08-17T10:28:30.902Z,348.75
2018-08-17T10:29:30.893Z,360.00
2018-08-17T10:30:30.881Z,371.25
2018-08-17T10:31:30.883Z,382.50
2018-08-17T10:32:30.860Z,399.38
2018-08-17T10:33:30.849Z,421.88
2018-08-17T10:34:30.843Z,421.88
2018-08-17T10:35:30.827Z,410.62
2018-08-17T10:36:30.829Z,421.88
2018-08-17T10:37:30.814Z,410.62
2018-08-17T10:38:30.794Z,416.25
2018-08-17T10:39:30.784Z,410.62
2018-08-17T10:40:30.774Z,410.62
2018-08-17T10:41:30.773Z,416.25
2018-08-17T10:42:30.751Z,410.62
2018-08-17T10:43:30.744Z,405.00
2018-08-17T10:44:30.733Z,393.75
2018-08-17T10:45:30.719Z,382.50
2018-08-17T10:46:30.718Z,388.12
2018-08-17T10:47:30.697Z,399.38
2018-08-17T10:48:30.689Z,399.38
2018-08-17T10:49:30.681Z,410.62
2018-08-17T10:50:30.670Z,421.88
2018-08-17T10:51:30.670Z,427.50
2018-08-17T10:52:30.644Z,416.25
2018-08-17T10:53:30.632Z,393.75
2018-08-17T10:54:30.622Z,388.12
2018-08-17T10:55:30.667Z,376.88
2018-08-17T10:56:30.611Z,365.62
2018-08-17T10:57:30.649Z,360.00
2018-08-17T10:58:30.708Z,365.62
2018-08-17T10:59:30.569Z,376.88
2018-08-17T11:00:30.696Z,365.62
2018-08-17T11:01:30.689Z,376.88
2018-08-17T11:02:30.540Z,348.75
2018-08-17T11:03:30.525Z,309.38
2018-08-17T11:04:30.512Z,298.12
2018-08-17T11:05:30.504Z,275.62
2018-08-17T11:06:30.502Z,270.00
2018-08-17T11:07:30.480Z,270.00
2018-08-17T11:08:30.469Z,270.00
2018-08-17T11:09:30.459Z,264.38
2018-08-17T11:10:30.449Z,247.50
2018-08-17T11:11:30.454Z,241.88
2018-08-17T11:12:30.426Z,247.50
2018-08-17T11:13:30.420Z,247.50
2018-08-17T11:14:30.467Z,236.25
2018-08-17T11:15:30.394Z,230.62
2018-08-17T11:16:30.394Z,236.25
2018-08-17T11:17:30.373Z,258.75
2018-08-17T11:18:30.365Z,298.12
2018-08-17T11:19:30.353Z,343.12
2018-08-17T11:20:30.340Z,399.38
2018-08-17T11:21:30.342Z,438.75
2018-08-17T11:22:30.320Z,455.62
2018-08-17T11:23:30.317Z,461.25
2018-08-17T11:24:30.296Z,466.88
2018-08-17T11:25:30.294Z,472.50
2018-08-17T11:26:30.306Z,461.25
2018-08-17T11:27:30.265Z,438.75
2018-08-17T11:28:30.253Z,405.00
2018-08-17T11:29:30.243Z,399.38
2018-08-17T11:30:30.261Z,382.50
2018-08-17T11:31:30.220Z,388.12
2018-08-17T11:32:30.234Z,388.12
2018-08-17T11:33:30.200Z,360.00
2018-08-17T11:34:30.318Z,337.50
2018-08-17T11:35:30.178Z,303.75
2018-08-17T11:36:30.169Z,264.38
2018-08-17T11:37:30.167Z,241.88
2018-08-17T11:38:30.145Z,225.00
2018-08-17T11:39:30.137Z,208.12
2018-08-17T11:40:30.125Z,202.50
2018-08-17T11:41:30.258Z,219.38
2018-08-17T11:42:30.118Z,230.62
2018-08-17T11:43:30.094Z,236.25
2018-08-17T11:44:30.082Z,236.25
2018-08-17T11:45:30.071Z,241.88
2018-08-17T11:46:30.164Z,236.25
2018-08-17T11:47:30.060Z,247.50
2018-08-17T11:48:30.039Z,270.00
2018-08-17T11:49:30.113Z,298.12
2018-08-17T11:50:30.018Z,343.12
2018-08-17T11:51:30.035Z,354.38
2018-08-17T11:52:30.006Z,331.88
2018-08-17T11:53:29.995Z,315.00
2018-08-17T11:54:29.989Z,315.00
2018-08-17T11:55:29.968Z,309.38
2018-08-17T11:56:29.951Z,315.00
2018-08-17T11:57:29.951Z,348.75
2018-08-17T11:58:30.232Z,382.50
2018-08-17T11:59:29.923Z,376.88
2018-08-17T12:00:29.910Z,371.25
2018-08-17T12:01:30.047Z,365.62
2018-08-17T12:02:30.053Z,331.88
2018-08-17T12:03:29.877Z,275.62
2018-08-17T12:04:29.941Z,236.25
2018-08-17T12:05:29.944Z,236.25
2018-08-17T12:06:29.850Z,241.88
2018-08-17T12:07:29.846Z,253.12
2018-08-17T12:08:29.880Z,264.38
2018-08-17T12:09:29.813Z,253.12
2018-08-17T12:10:29.803Z,241.88
2018-08-17T12:11:29.792Z,230.62
2018-08-17T12:12:29.788Z,225.00
2018-08-17T12:13:29.850Z,225.00
2018-08-17T12:14:29.758Z,236.25
2018-08-17T12:15:29.747Z,253.12
2018-08-17T12:16:29.734Z,275.62
2018-08-17T12:17:29.919Z,298.12
2018-08-17T12:18:30.282Z,309.38
2018-08-17T12:19:29.702Z,337.50
2018-08-17T12:20:29.792Z,371.25
2018-08-17T12:21:29.680Z,393.75
2018-08-17T12:22:29.685Z,416.25
2018-08-17T12:23:29.663Z,405.00
2018-08-17T12:24:29.776Z,388.12
2018-08-17T12:25:29.642Z,360.00
2018-08-17T12:26:29.628Z,320.62
2018-08-17T12:27:29.626Z,292.50
2018-08-17T12:28:29.626Z,275.62
2018-08-17T12:29:29.597Z,270.00
2018-08-17T12:30:29.582Z,264.38
2018-08-17T12:31:29.572Z,270.00
2018-08-17T12:32:29.576Z,258.75
2018-08-17T12:33:29.552Z,247.50
2018-08-17T12:34:29.541Z,241.88
2018-08-17T12:35:29.530Z,230.62
2018-08-17T12:36:29.526Z,236.25
2018-08-17T12:37:29.519Z,241.88
2018-08-17T12:38:29.498Z,247.50
2018-08-17T12:39:29.495Z,253.12
2018-08-17T12:40:29.478Z,258.75
2018-08-17T12:41:29.468Z,264.38
2018-08-17T12:42:29.474Z,258.75
2018-08-17T12:43:29.443Z,258.75
2018-08-17T12:44:29.434Z,264.38
2018-08-17T12:45:29.422Z,253.12
2018-08-17T12:46:29.467Z,247.50
2018-08-17T12:47:29.409Z,236.25
2018-08-17T12:48:29.389Z,241.88
2018-08-17T12:49:29.388Z,236.25
2018-08-17T12:50:29.374Z,241.88
2018-08-17T12:51:29.357Z,225.00
2018-08-17T12:52:29.386Z,225.00
2018-08-17T12:53:29.334Z,241.88
2018-08-17T12:54:29.323Z,247.50
2018-08-17T12:55:29.313Z,264.38
2018-08-17T12:56:29.303Z,247.50
2018-08-17T12:57:29.303Z,253.12
2018-08-17T12:58:29.284Z,247.50
2018-08-17T12:59:29.279Z,241.88
2018-08-17T13:00:29.261Z,230.62
2018-08-17T13:01:29.247Z,225.00
2018-08-17T13:02:29.256Z,241.88
2018-08-17T13:03:29.228Z,241.88
2018-08-17T13:04:29.217Z,236.25
2018-08-17T13:05:29.206Z,241.88
2018-08-17T13:06:29.196Z,264.38
2018-08-17T13:07:29.198Z,292.50
2018-08-17T13:08:29.172Z,292.50
2018-08-17T13:09:29.162Z,281.25
2018-08-17T13:10:29.154Z,247.50
2018-08-17T13:11:29.156Z,230.62
2018-08-17T13:12:29.144Z,219.38
2018-08-17T13:13:29.118Z,213.75
2018-08-17T13:14:29.114Z,208.12
2018-08-17T13:15:29.099Z,208.12
2018-08-17T13:16:29.088Z,213.75
2018-08-17T13:17:29.085Z,219.38
2018-08-17T13:18:29.063Z,230.62
2018-08-17T13:19:29.054Z,236.25
2018-08-17T13:20:29.079Z,236.25
2018-08-17T13:21:29.032Z,247.50
2018-08-17T13:22:29.030Z,264.38
2018-08-17T13:23:29.103Z,270.00
2018-08-17T13:24:29.001Z,281.25
2018-08-17T13:25:28.991Z,275.62
2018-08-17T13:26:28.977Z,270.00
2018-08-17T13:27:28.976Z,258.75
2018-08-17T13:28:28.958Z,241.88
2018-08-17T13:29:28.945Z,230.62
2018-08-17T13:30:28.938Z,219.38
2018-08-17T13:31:28.924Z,208.12
2018-08-17T13:32:28.938Z,208.12
2018-08-17T13:33:28.909Z,225.00
2018-08-17T13:34:28.895Z,230.62
2018-08-17T13:35:28.885Z,247.50
2018-08-17T13:36:28.870Z,253.12
2018-08-17T13:37:28.865Z,247.50
2018-08-17T13:38:28.859Z,241.88
2018-08-17T13:39:28.843Z,253.12
2018-08-17T13:40:28.828Z,253.12
2018-08-17T13:41:28.821Z,253.12
2018-08-17T13:42:28.810Z,236.25
2018-08-17T13:43:28.807Z,225.00
2018-08-17T13:44:28.790Z,219.38
2018-08-17T13:45:28.773Z,219.38
2018-08-17T13:46:28.761Z,225.00
2018-08-17T13:47:28.752Z,230.62
2018-08-17T13:48:28.768Z,236.25
2018-08-17T13:49:28.729Z,225.00
2018-08-17T13:50:28.720Z,213.75
2018-08-17T13:51:28.710Z,191.25
2018-08-17T13:52:28.696Z,180.00
2018-08-17T13:53:28.695Z,180.00
2018-08-17T13:54:28.676Z,174.38
2018-08-17T13:55:28.744Z,174.38
2018-08-17T13:56:28.654Z,174.38
2018-08-17T13:57:28.661Z,174.38
2018-08-17T13:58:28.643Z,168.75
2018-08-17T13:59:28.624Z,168.75
2018-08-17T14:00:28.611Z,168.75
2018-08-17T14:01:28.604Z,168.75
2018-08-17T14:02:28.590Z,174.38
2018-08-17T14:03:28.590Z,185.62
2018-08-17T14:04:28.714Z,191.25
2018-08-17T14:05:28.558Z,185.62
2018-08-17T14:06:28.547Z,185.62
2018-08-17T14:07:28.534Z,180.00
2018-08-17T14:08:28.538Z,185.62
2018-08-17T14:09:28.637Z,191.25
2018-08-17T14:10:28.569Z,208.12
2018-08-17T14:11:28.491Z,208.12
2018-08-17T14:12:28.481Z,236.25
2018-08-17T14:13:28.481Z,253.12
2018-08-17T14:14:28.460Z,270.00
2018-08-17T14:15:28.534Z,292.50
2018-08-17T14:16:28.440Z,303.75
2018-08-17T14:17:28.426Z,309.38
2018-08-17T14:18:28.428Z,298.12
2018-08-17T14:19:28.475Z,298.12
2018-08-17T14:20:28.394Z,292.50
2018-08-17T14:21:28.384Z,286.88
2018-08-17T14:22:28.460Z,275.62
2018-08-17T14:23:28.486Z,275.62
2018-08-17T14:24:28.484Z,275.62
2018-08-17T14:25:28.341Z,281.25
2018-08-17T14:26:28.328Z,281.25
2018-08-17T14:27:28.327Z,270.00
2018-08-17T14:28:28.340Z,275.62
2018-08-17T14:29:28.315Z,275.62
2018-08-17T14:30:28.286Z,258.75
2018-08-17T14:31:28.292Z,247.50
2018-08-17T14:32:28.265Z,225.00
2018-08-17T14:33:28.281Z,208.12
2018-08-17T14:34:28.402Z,213.75
2018-08-17T14:35:28.236Z,230.62
2018-08-17T14:36:28.222Z,241.88
2018-08-17T14:37:28.214Z,253.12
2018-08-17T14:38:28.210Z,264.38
2018-08-17T14:39:28.191Z,281.25
2018-08-17T14:40:28.270Z,270.00
2018-08-17T14:41:28.174Z,264.38
2018-08-17T14:42:28.161Z,264.38
2018-08-17T14:43:28.157Z,258.75
2018-08-17T14:44:28.134Z,253.12
2018-08-17T14:45:28.130Z,236.25
2018-08-17T14:46:28.186Z,225.00
2018-08-17T14:47:28.102Z,213.75
2018-08-17T14:48:28.101Z,196.88
2018-08-17T14:49:28.083Z,185.62
2018-08-17T14:50:28.078Z,174.38
2018-08-17T14:51:28.057Z,163.12
2018-08-17T14:52:28.075Z,146.25
2018-08-17T14:53:28.181Z,135.00
2018-08-17T14:54:28.029Z,129.38
2018-08-17T14:55:28.016Z,129.38
2018-08-17T14:56:28.005Z,129.38
2018-08-17T14:57:27.994Z,135.00
2018-08-17T14:58:27.993Z,135.00
2018-08-17T14:59:27.975Z,129.38
2018-08-17T15:00:27.964Z,135.00
2018-08-17T15:01:27.952Z,135.00
2018-08-17T15:02:27.941Z,140.62
2018-08-17T15:03:27.940Z,129.38
2018-08-17T15:04:27.919Z,123.75
2018-08-17T15:05:27.908Z,112.50
2018-08-17T15:06:27.895Z,95.62
2018-08-17T15:07:27.885Z,84.38
2018-08-17T15:08:27.888Z,84.38
2018-08-17T15:09:27.863Z,84.38
2018-08-17T15:10:27.866Z,90.00
2018-08-17T15:11:27.841Z,101.25
2018-08-17T15:12:27.832Z,112.50
2018-08-17T15:13:27.900Z,112.50
2018-08-17T15:14:27.808Z,106.88
2018-08-17T15:15:27.804Z,106.88
2018-08-17T15:16:27.786Z,106.88
2018-08-17T15:17:27.777Z,95.62
2018-08-17T15:18:27.779Z,90.00
2018-08-17T15:19:27.756Z,84.38
2018-08-17T15:20:27.745Z,84.38
2018-08-17T15:21:27.735Z,84.38
2018-08-17T15:22:27.722Z,90.00
2018-08-17T15:23:27.724Z,101.25
2018-08-17T15:24:27.700Z,101.25
2018-08-17T15:25:27.689Z,106.88
2018-08-17T15:26:27.718Z,112.50
2018-08-17T15:27:27.667Z,129.38
2018-08-17T15:28:27.705Z,146.25
2018-08-17T15:29:27.648Z,146.25
2018-08-17T15:30:27.654Z,157.50
2018-08-17T15:31:27.623Z,174.38
2018-08-17T15:32:27.614Z,174.38
2018-08-17T15:33:27.621Z,174.38
2018-08-17T15:34:27.592Z,191.25
2018-08-17T15:35:27.583Z,196.88
2018-08-17T15:36:27.574Z,185.62
2018-08-17T15:37:27.562Z,168.75
2018-08-17T15:38:27.549Z,157.50
2018-08-17T15:39:27.548Z,157.50
2018-08-17T15:40:27.526Z,157.50
2018-08-17T15:41:27.665Z,146.25
2018-08-17T15:42:27.505Z,123.75
2018-08-17T15:43:27.495Z,106.88
2018-08-17T15:44:27.494Z,90.00
2018-08-17T15:45:27.486Z,78.75
2018-08-17T15:46:27.462Z,73.12
2018-08-17T15:47:27.451Z,73.12
2018-08-17T15:48:27.443Z,73.12
2018-08-17T15:49:27.440Z,73.12
2018-08-17T15:50:27.423Z,73.12
2018-08-17T15:51:27.409Z,78.75
2018-08-17T15:52:27.397Z,90.00
2018-08-17T15:53:27.386Z,95.62
2018-08-17T15:54:27.388Z,90.00
2018-08-17T15:55:27.363Z,90.00
2018-08-17T15:56:27.361Z,84.38
2018-08-17T15:57:27.407Z,78.75
2018-08-17T15:58:27.336Z,73.12
2018-08-17T15:59:27.336Z,67.50
2018-08-17T16:00:27.358Z,67.50
2018-08-17T16:01:27.364Z,61.88
2018-08-17T16:02:27.290Z,61.88
2018-08-17T16:03:27.280Z,61.88
2018-08-17T16:04:27.280Z,61.88
2018-08-17T16:05:27.257Z,56.25
2018-08-17T16:06:27.246Z,50.62
2018-08-17T16:07:27.238Z,50.62
2018-08-17T16:08:27.305Z,50.62
2018-08-17T16:09:27.224Z,50.62
2018-08-17T16:10:27.264Z,45.00
2018-08-17T16:11:27.192Z,45.00
2018-08-17T16:12:27.180Z,45.00
2018-08-17T16:13:27.170Z,45.00
2018-08-17T16:14:27.170Z,45.00
2018-08-17T16:15:27.148Z,50.62
2018-08-17T16:16:27.184Z,50.62
2018-08-17T16:17:27.127Z,56.25
2018-08-17T16:18:27.252Z,50.62
2018-08-17T16:19:27.130Z,50.62
2018-08-17T16:20:27.094Z,50.62
2018-08-17T16:21:27.087Z,50.62
2018-08-17T16:22:27.075Z,50.62
2018-08-17T16:23:27.065Z,50.62
2018-08-17T16:24:27.131Z,50.62
2018-08-17T16:25:27.042Z,50.62
2018-08-17T16:26:27.117Z,50.62
2018-08-17T16:27:27.018Z,50.62
2018-08-17T16:28:27.008Z,45.00
2018-08-17T16:29:27.008Z,39.38
2018-08-17T16:30:26.991Z,33.75